createdAt,value
2023-05-20T00:02:21.635Z,9.20
2023-05-20T00:04:49.737Z,8.70
2023-05-20T00:07:17.796Z,9.00
2023-05-20T00:09:46.009Z,8.10
2023-05-20T00:12:13.977Z,9.10
2023-05-20T00:14:42.953Z,8.80
2023-05-20T00:17:10.848Z,8.70
2023-05-20T00:19:38.893Z,8.50
2023-05-20T00:22:08.624Z,8.90
2023-05-20T00:24:36.548Z,9.10
2023-05-20T00:27:04.664Z,8.80
2023-05-20T00:29:34.164Z,8.70
2023-05-20T00:32:04.639Z,8.90
2023-05-20T00:34:33.140Z,9.60
2023-05-20T00:37:01.168Z,9.30
2023-05-20T00:39:30.359Z,10.00
2023-05-20T00:42:00.571Z,10.90
2023-05-20T00:44:28.752Z,10.60
2023-05-20T00:46:56.940Z,9.90
2023-05-20T00:49:25.212Z,10.40
2023-05-20T00:51:53.181Z,10.40
2023-05-20T00:54:22.434Z,9.80
2023-05-20T00:56:51.229Z,9.00
2023-05-20T00:59:19.133Z,8.80
2023-05-20T01:01:47.447Z,8.60
2023-05-20T01:04:15.635Z,8.60
2023-05-20T01:06:46.196Z,9.90
2023-05-20T01:09:14.464Z,9.70
2023-05-20T01:11:51.163Z,9.90
2023-05-20T01:14:23.598Z,9.10
2023-05-20T01:17:28.486Z,9.40
2023-05-20T01:21:13.416Z,8.90
2023-05-20T01:24:25.475Z,10.20
2023-05-20T01:27:46.382Z,10.10
2023-05-20T01:31:06.473Z,10.30
2023-05-20T01:34:45.781Z,9.90
2023-05-20T01:38:22.978Z,11.20
2023-05-20T01:42:17.412Z,10.10
2023-05-20T01:45:51.480Z,10.30
2023-05-20T01:49:26.323Z,10.70
2023-05-20T01:52:49.494Z,11.10
2023-05-20T01:56:08.416Z,10.10
2023-05-20T01:59:54.101Z,9.80
2023-05-20T02:06:57.062Z,9.50
2023-05-20T02:10:26.121Z,9.20
2023-05-20T02:14:13.748Z,9.10
2023-05-20T02:55:29.362Z,11.20
2023-05-20T03:02:20.369Z,10.60
2023-05-20T03:08:42.346Z,9.60
2023-05-20T03:15:34.824Z,9.70
2023-05-20T03:18:42.387Z,8.80
2023-05-20T03:22:15.379Z,8.30
2023-05-20T03:25:47.660Z,9.10
2023-05-20T03:29:18.380Z,9.00
2023-05-20T03:32:22.411Z,9.20
2023-05-20T03:35:34.637Z,10.20
2023-05-20T03:38:39.378Z,10.40
2023-05-20T03:42:25.316Z,10.70
2023-05-20T03:45:42.364Z,11.20
2023-05-20T03:49:00.358Z,10.80
2023-05-20T03:52:36.334Z,10.70
2023-05-20T03:56:16.365Z,11.30
2023-05-20T03:59:39.382Z,11.30
2023-05-20T04:02:36.485Z,11.60
2023-05-20T04:05:53.346Z,11.70
2023-05-20T04:09:15.319Z,11.70
2023-05-20T04:12:15.458Z,11.10
2023-05-20T04:16:07.837Z,11.10
2023-05-20T04:20:02.445Z,10.70
2023-05-20T04:23:11.392Z,10.40
2023-05-20T04:26:34.356Z,9.90
2023-05-20T04:30:16.746Z,9.50
2023-05-20T04:33:56.387Z,13.10
2023-05-20T04:41:06.906Z,17.00
2023-05-20T04:45:35.136Z,10.70
2023-05-20T04:52:54.413Z,10.70
2023-05-20T04:56:39.687Z,10.10
2023-05-20T05:00:12.661Z,10.80
2023-05-20T05:03:19.422Z,10.20
2023-05-20T05:07:06.377Z,11.50
2023-05-20T05:10:31.388Z,10.40
2023-05-20T05:13:40.328Z,10.60
2023-05-20T05:16:54.832Z,10.50
2023-05-20T05:20:09.513Z,10.80
2023-05-20T05:23:26.359Z,14.60
2023-05-20T05:26:38.709Z,12.70
2023-05-20T05:29:59.034Z,11.40
2023-05-20T05:33:02.469Z,10.90
2023-05-20T05:36:08.406Z,9.70
2023-05-20T05:39:34.310Z,9.80
2023-05-20T05:43:04.389Z,9.90
2023-05-20T05:47:13.424Z,11.20
2023-05-20T05:51:00.106Z,13.70
2023-05-20T05:55:05.382Z,10.70
2023-05-20T06:02:45.633Z,11.40
2023-05-20T06:06:32.344Z,10.80
2023-05-20T06:09:58.535Z,11.50
2023-05-20T06:13:08.388Z,11.10
2023-05-20T06:17:05.519Z,10.60
2023-05-20T06:20:23.424Z,11.50
2023-05-20T06:24:28.449Z,11.80
2023-05-20T06:27:56.348Z,11.20
2023-05-20T06:31:20.802Z,11.50
2023-05-20T06:34:33.367Z,11.70
2023-05-20T06:37:58.455Z,12.50
2023-05-20T06:41:12.434Z,11.10
2023-05-20T06:44:39.384Z,11.40
2023-05-20T06:48:12.335Z,11.00
2023-05-20T06:51:43.412Z,10.10
2023-05-20T06:55:15.357Z,11.10
2023-05-20T06:58:35.437Z,10.90
2023-05-20T07:02:00.467Z,10.30
2023-05-20T07:08:50.385Z,11.10
2023-05-20T07:11:48.148Z,10.50
2023-05-20T07:14:55.429Z,9.60
2023-05-20T07:18:57.535Z,9.30
2023-05-20T07:22:17.368Z,9.10
2023-05-20T07:25:47.366Z,8.10
2023-05-20T07:28:56.424Z,8.50
2023-05-20T07:32:25.365Z,8.10
2023-05-20T07:36:14.169Z,7.10
2023-05-20T07:39:27.822Z,7.30
2023-05-20T07:42:44.750Z,7.50
2023-05-20T07:45:36.455Z,8.00
2023-05-20T07:48:05.705Z,7.80
2023-05-20T07:51:00.396Z,7.80
2023-05-20T07:54:31.545Z,7.20
2023-05-20T07:57:59.351Z,7.30
2023-05-20T08:01:23.505Z,7.50
2023-05-20T08:04:28.397Z,7.80
2023-05-20T08:07:12.580Z,7.30
2023-05-20T08:10:17.822Z,6.80
2023-05-20T08:13:18.384Z,7.00
2023-05-20T08:16:41.438Z,7.90
2023-05-20T08:19:40.437Z,6.80
2023-05-20T08:22:46.401Z,6.70
2023-05-20T08:26:03.428Z,6.40
2023-05-20T08:29:12.336Z,6.20
2023-05-20T08:32:18.410Z,6.40
2023-05-20T08:35:30.327Z,6.50
2023-05-20T08:38:48.437Z,5.60
2023-05-20T08:42:04.370Z,5.80
2023-05-20T08:49:06.073Z,6.00
2023-05-20T08:52:02.401Z,5.20
2023-05-20T08:54:58.409Z,6.00
2023-05-20T08:58:00.401Z,5.80
2023-05-20T09:01:27.542Z,6.20
2023-05-20T09:04:34.416Z,6.90
2023-05-20T09:07:42.586Z,6.80
2023-05-20T09:10:56.671Z,6.90
2023-05-20T09:14:10.401Z,6.60
2023-05-20T09:20:15.213Z,7.30
2023-05-20T09:23:25.472Z,6.70
2023-05-20T09:26:54.153Z,6.40
2023-05-20T09:29:54.474Z,7.00
2023-05-20T09:33:04.578Z,5.70
2023-05-20T09:36:26.074Z,5.90
2023-05-20T09:39:14.955Z,6.00
2023-05-20T09:42:28.537Z,5.80
2023-05-20T09:45:42.501Z,5.80
2023-05-20T09:48:32.162Z,5.90
2023-05-20T09:51:43.391Z,5.70
2023-05-20T09:54:49.389Z,5.80
2023-05-20T09:58:19.434Z,5.50
2023-05-20T10:01:19.354Z,6.30
2023-05-20T10:04:49.905Z,5.70
2023-05-20T10:08:11.397Z,6.10
2023-05-20T10:11:28.433Z,6.60
2023-05-20T10:14:50.115Z,5.80
2023-05-20T10:18:09.345Z,5.80
2023-05-20T10:21:29.474Z,5.60
2023-05-20T10:24:26.372Z,7.00
2023-05-20T10:28:09.053Z,5.50
2023-05-20T10:31:55.751Z,5.80
2023-05-20T10:34:48.887Z,6.70
2023-05-20T10:38:17.208Z,5.70
2023-05-20T10:41:27.154Z,5.10
2023-05-20T10:44:21.774Z,5.60
2023-05-20T10:47:25.280Z,5.90
2023-05-20T10:50:24.993Z,5.60
2023-05-20T10:53:21.680Z,6.10
2023-05-20T10:56:07.955Z,5.10
2023-05-20T10:58:43.399Z,5.30
2023-05-20T11:01:33.249Z,5.60
2023-05-20T11:04:25.085Z,5.30
2023-05-20T11:07:35.340Z,5.90
2023-05-20T11:10:28.464Z,5.20
2023-05-20T11:12:57.824Z,6.00
2023-05-20T11:15:30.066Z,5.40
2023-05-20T11:18:06.058Z,5.40
2023-05-20T11:20:37.702Z,5.10
2023-05-20T11:23:14.927Z,5.60
2023-05-20T11:28:53.483Z,5.30
2023-05-20T11:31:44.867Z,5.20
2023-05-20T11:34:36.364Z,5.10
2023-05-20T11:37:31.185Z,5.90
2023-05-20T11:40:08.012Z,5.10
2023-05-20T11:42:37.571Z,5.00
2023-05-20T11:45:39.741Z,5.20
2023-05-20T11:48:10.822Z,5.40
2023-05-20T11:50:43.664Z,5.00
2023-05-20T11:53:18.061Z,4.80
2023-05-20T11:55:57.664Z,5.50
2023-05-20T11:58:29.552Z,4.90
2023-05-20T12:01:22.936Z,4.90
2023-05-20T12:03:51.851Z,4.70
2023-05-20T12:06:21.223Z,4.70
2023-05-20T12:08:52.521Z,4.70
2023-05-20T12:11:28.175Z,4.70
2023-05-20T12:14:14.469Z,4.40
2023-05-20T12:16:54.819Z,4.60
2023-05-20T12:19:25.607Z,5.70
2023-05-20T12:22:30.002Z,4.90
2023-05-20T12:25:13.497Z,4.40
2023-05-20T12:28:03.121Z,4.80
2023-05-20T12:30:31.987Z,4.80
2023-05-20T12:33:28.180Z,4.40
2023-05-20T12:35:56.328Z,4.60
2023-05-20T12:38:45.085Z,5.30
2023-05-20T12:41:33.684Z,4.70
2023-05-20T12:44:02.508Z,4.90
2023-05-20T12:46:40.787Z,6.00
2023-05-20T12:49:11.026Z,4.40
2023-05-20T12:52:22.764Z,4.30
2023-05-20T12:55:18.806Z,4.00
2023-05-20T12:59:11.805Z,4.10
2023-05-20T13:02:02.834Z,4.00
2023-05-20T13:04:54.006Z,4.60
2023-05-20T13:08:12.756Z,4.80
2023-05-20T13:11:41.923Z,4.60
2023-05-20T13:15:03.893Z,3.30
2023-05-20T13:19:03.748Z,2.70
2023-05-20T13:25:58.744Z,3.50
2023-05-20T13:29:32.317Z,2.70
2023-05-20T13:40:01.213Z,3.10
2023-05-20T13:43:11.627Z,4.10
2023-05-20T13:50:06.695Z,5.00
2023-05-20T13:53:15.645Z,5.40
2023-05-20T13:56:33.656Z,4.90
2023-05-20T14:00:00.717Z,4.80
2023-05-20T14:03:37.754Z,4.70
2023-05-20T14:07:13.627Z,4.10
2023-05-20T14:10:23.877Z,4.40
2023-05-20T14:13:40.685Z,4.60
2023-05-20T14:17:12.649Z,5.40
2023-05-20T14:20:13.688Z,5.40
2023-05-20T14:23:45.671Z,4.90
2023-05-20T14:27:14.562Z,5.00
2023-05-20T14:30:31.625Z,5.40
2023-05-20T14:33:34.639Z,5.50
2023-05-20T14:43:29.741Z,4.70
2023-05-20T14:46:45.793Z,4.90
2023-05-20T14:49:56.654Z,4.50
2023-05-20T14:53:06.860Z,8.00
2023-05-20T14:56:11.687Z,6.30
2023-05-20T15:03:25.603Z,6.30
2023-05-20T15:06:33.620Z,6.80
2023-05-20T15:13:22.793Z,6.20
2023-05-20T15:16:38.669Z,5.50
2023-05-20T15:19:34.935Z,5.50
2023-05-20T15:23:22.269Z,5.40
2023-05-20T15:26:56.878Z,5.20
2023-05-20T15:30:19.795Z,4.90
2023-05-20T15:33:51.722Z,5.20
2023-05-20T15:40:14.958Z,5.90
2023-05-20T15:43:31.654Z,5.40
2023-05-20T15:47:03.611Z,5.20
2023-05-20T15:49:59.755Z,5.50
2023-05-20T15:53:12.661Z,4.90
2023-05-20T15:56:45.976Z,5.00
2023-05-20T16:00:16.627Z,4.90
2023-05-20T16:03:37.893Z,4.90
2023-05-20T16:06:46.683Z,5.30
2023-05-20T16:09:58.270Z,5.80
2023-05-20T16:16:45.805Z,6.20
2023-05-20T16:19:44.274Z,6.10
2023-05-20T16:22:33.862Z,5.60
2023-05-20T16:25:14.429Z,6.10
2023-05-20T16:28:03.753Z,4.70
2023-05-20T16:31:01.213Z,4.40
2023-05-20T16:33:47.583Z,4.50
2023-05-20T16:37:29.927Z,4.30
2023-05-20T16:40:52.233Z,4.30
2023-05-20T16:43:36.840Z,4.30
2023-05-20T16:46:41.734Z,4.20
2023-05-20T16:50:59.470Z,3.70
2023-05-20T16:54:26.677Z,3.90
2023-05-20T16:57:40.648Z,4.00
2023-05-20T17:00:52.783Z,4.20
2023-05-20T17:04:06.675Z,4.60
2023-05-20T17:06:54.660Z,4.10
2023-05-20T17:09:49.404Z,4.70
2023-05-20T17:12:42.332Z,4.20
2023-05-20T17:15:28.015Z,4.60
2023-05-20T17:18:32.647Z,5.10
2023-05-20T17:21:35.625Z,5.50
2023-05-20T17:24:46.673Z,5.10
2023-05-20T17:28:29.086Z,5.10
2023-05-20T17:31:49.060Z,5.40
2023-05-20T17:38:13.987Z,6.30
2023-05-20T17:41:10.607Z,6.50
2023-05-20T17:44:07.846Z,6.30
2023-05-20T17:46:40.678Z,6.60
2023-05-20T17:49:25.240Z,7.20
2023-05-20T17:52:20.579Z,6.80
2023-05-20T17:55:28.669Z,7.50
2023-05-20T17:58:37.916Z,6.50
2023-05-20T18:01:37.679Z,7.60
2023-05-20T18:04:29.112Z,7.90
2023-05-20T18:07:33.995Z,8.40
2023-05-20T18:10:42.302Z,6.90
2023-05-20T18:14:11.636Z,7.80
2023-05-20T18:17:14.660Z,7.10
2023-05-20T18:20:16.600Z,6.40
2023-05-20T18:23:25.150Z,6.30
2023-05-20T18:26:23.635Z,7.30
2023-05-20T18:29:18.693Z,7.60
2023-05-20T18:32:04.497Z,7.30
2023-05-20T18:35:04.255Z,8.00
2023-05-20T18:37:55.581Z,9.00
2023-05-20T18:41:11.727Z,7.80
2023-05-20T18:44:07.629Z,7.80
2023-05-20T18:47:18.638Z,7.30
2023-05-20T18:50:36.118Z,7.40
2023-05-20T18:53:39.617Z,7.30
2023-05-20T19:00:07.920Z,7.00
2023-05-20T19:03:11.729Z,7.00
2023-05-20T19:06:36.694Z,9.60
2023-05-20T19:10:32.639Z,7.50
2023-05-20T19:13:43.462Z,8.00
2023-05-20T19:16:57.631Z,8.10
2023-05-20T19:20:15.568Z,7.80
2023-05-20T19:23:40.848Z,8.10
2023-05-20T19:27:10.639Z,8.60
2023-05-20T19:30:22.641Z,9.70
2023-05-20T19:36:23.073Z,10.20
2023-05-20T19:46:52.117Z,10.50
2023-05-20T19:50:08.610Z,11.20
2023-05-20T20:15:15.864Z,10.20
2023-05-20T20:18:07.668Z,9.00
2023-05-20T20:20:59.883Z,9.60
2023-05-20T20:29:08.040Z,5.30
2023-05-20T20:32:08.711Z,5.40
2023-05-20T20:35:10.647Z,8.20
2023-05-20T20:38:19.058Z,8.00
2023-05-20T20:41:24.665Z,8.00
2023-05-20T20:44:17.340Z,9.70
2023-05-20T20:47:23.695Z,8.40
2023-05-20T20:54:20.481Z,10.40
2023-05-20T20:57:50.592Z,8.20
2023-05-20T21:01:21.705Z,9.10
2023-05-20T21:04:30.653Z,11.10
2023-05-20T21:07:30.694Z,10.50
2023-05-20T21:14:39.697Z,10.70
2023-05-20T21:18:22.633Z,8.70
2023-05-20T21:21:56.655Z,7.60
2023-05-20T21:25:16.614Z,6.60
2023-05-20T21:29:01.667Z,5.70
2023-05-20T21:32:13.694Z,7.80
2023-05-20T21:35:33.815Z,7.30
2023-05-20T21:38:47.584Z,7.20
2023-05-20T21:42:15.694Z,7.50
2023-05-20T21:45:47.713Z,8.20
2023-05-20T21:49:24.741Z,7.80
2023-05-20T21:52:58.615Z,8.30
2023-05-20T21:56:18.006Z,7.30
2023-05-20T21:59:46.609Z,7.70
2023-05-20T22:02:59.745Z,8.10
2023-05-20T22:06:05.629Z,8.10
2023-05-20T22:09:34.667Z,7.90
2023-05-20T22:13:09.918Z,8.70
2023-05-20T22:16:27.662Z,9.30
2023-05-20T22:19:48.628Z,7.90
2023-05-20T22:23:09.669Z,5.80
2023-05-20T22:29:57.629Z,5.10
2023-05-20T22:33:12.680Z,5.10
2023-05-20T22:37:07.115Z,4.60
2023-05-20T22:40:34.789Z,4.30
2023-05-20T22:44:33.972Z,4.60
2023-05-20T22:48:29.662Z,5.50
2023-05-20T22:51:24.746Z,8.30
2023-05-20T22:54:49.616Z,8.00
2023-05-20T22:57:59.990Z,7.60
2023-05-20T23:01:25.621Z,8.50
2023-05-20T23:04:43.732Z,8.50
2023-05-20T23:08:00.625Z,8.60
2023-05-20T23:11:20.664Z,9.00
2023-05-20T23:14:32.613Z,7.60
2023-05-20T23:18:11.666Z,6.70
2023-05-20T23:21:24.611Z,6.50
2023-05-20T23:24:45.673Z,6.50
2023-05-20T23:27:45.657Z,6.80
2023-05-20T23:30:56.788Z,7.40
2023-05-20T23:33:55.654Z,7.50
2023-05-20T23:37:13.754Z,7.10
2023-05-20T23:40:37.969Z,7.20
2023-05-20T23:43:59.962Z,6.60
2023-05-20T23:47:20.049Z,7.50
2023-05-20T23:50:48.927Z,5.80
2023-05-20T23:54:19.036Z,6.10
2023-05-20T23:57:49.586Z,6.80
